sensor_id;sensor_type;location;lat;lon;timestamp;temperature;humidity
10911;DHT22;5508;49.150;11.030;2023-04-25T00:01:55;5.60;99.90
10911;DHT22;5508;49.150;11.030;2023-04-25T00:04:56;5.70;99.90
10911;DHT22;5508;49.150;11.030;2023-04-25T00:07:58;5.70;99.90
10911;DHT22;5508;49.150;11.030;2023-04-25T00:11:00;5.70;99.90
10911;DHT22;5508;49.150;11.030;2023-04-25T00:14:01;5.70;99.90
10911;DHT22;5508;49.150;11.030;2023-04-25T00:17:02;5.70;99.90
10911;DHT22;5508;49.150;11.030;2023-04-25T00:20:05;5.70;99.90
10911;DHT22;5508;49.150;11.030;2023-04-25T00:23:06;5.70;99.90
10911;DHT22;5508;49.150;11.030;2023-04-25T00:26:08;5.70;99.90
10911;DHT22;5508;49.150;11.030;2023-04-25T00:29:08;5.70;99.90
10911;DHT22;5508;49.150;11.030;2023-04-25T00:32:09;5.70;99.90
10911;DHT22;5508;49.150;11.030;2023-04-25T00:35:10;5.70;99.90
10911;DHT22;5508;49.150;11.030;2023-04-25T00:38:10;5.60;99.90
10911;DHT22;5508;49.150;11.030;2023-04-25T00:41:11;5.50;99.90
10911;DHT22;5508;49.150;11.030;2023-04-25T00:44:12;5.60;99.90
10911;DHT22;5508;49.150;11.030;2023-04-25T00:47:13;5.60;99.90
10911;DHT22;5508;49.150;11.030;2023-04-25T00:50:15;5.50;99.90
10911;DHT22;5508;49.150;11.030;2023-04-25T00:53:15;5.50;99.90
10911;DHT22;5508;49.150;11.030;2023-04-25T00:56:16;5.40;99.90
10911;DHT22;5508;49.150;11.030;2023-04-25T00:59:18;5.40;99.90
10911;DHT22;5508;49.150;11.030;2023-04-25T01:02:20;5.50;99.90
10911;DHT22;5508;49.150;11.030;2023-04-25T01:05:20;5.50;99.90
10911;DHT22;5508;49.150;11.030;2023-04-25T01:08:24;5.40;99.90
10911;DHT22;5508;49.150;11.030;2023-04-25T01:11:25;5.30;99.90
10911;DHT22;5508;49.150;11.030;2023-04-25T01:14:26;5.30;99.90
10911;DHT22;5508;49.150;11.030;2023-04-25T01:17:27;5.30;99.90
10911;DHT22;5508;49.150;11.030;2023-04-25T01:20:28;5.40;99.90
10911;DHT22;5508;49.150;11.030;2023-04-25T01:23:29;5.30;99.90
10911;DHT22;5508;49.150;11.030;2023-04-25T01:26:30;5.30;99.90
10911;DHT22;5508;49.150;11.030;2023-04-25T01:29:32;5.30;99.90
10911;DHT22;5508;49.150;11.030;2023-04-25T01:32:33;5.20;99.90
10911;DHT22;5508;49.150;11.030;2023-04-25T01:35:40;5.20;99.90
10911;DHT22;5508;49.150;11.030;2023-04-25T01:38:41;5.20;99.90
10911;DHT22;5508;49.150;11.030;2023-04-25T01:41:42;5.20;99.90
10911;DHT22;5508;49.150;11.030;2023-04-25T01:44:43;5.20;99.90
10911;DHT22;5508;49.150;11.030;2023-04-25T01:47:44;5.30;99.90
10911;DHT22;5508;49.150;11.030;2023-04-25T01:50:49;5.40;99.90
10911;DHT22;5508;49.150;11.030;2023-04-25T01:53:50;5.40;99.90
10911;DHT22;5508;49.150;11.030;2023-04-25T01:56:51;5.40;99.90
10911;DHT22;5508;49.150;11.030;2023-04-25T02:00:04;5.30;99.90
10911;DHT22;5508;49.150;11.030;2023-04-25T02:03:05;5.40;99.90
10911;DHT22;5508;49.150;11.030;2023-04-25T02:06:06;5.30;99.90
10911;DHT22;5508;49.150;11.030;2023-04-25T02:09:07;5.30;99.90
10911;DHT22;5508;49.150;11.030;2023-04-25T02:12:09;5.30;99.90
10911;DHT22;5508;49.150;11.030;2023-04-25T02:15:10;5.30;99.90
10911;DHT22;5508;49.150;11.030;2023-04-25T02:18:11;5.30;99.90
10911;DHT22;5508;49.150;11.030;2023-04-25T02:21:11;5.30;99.90
10911;DHT22;5508;49.150;11.030;2023-04-25T02:24:12;5.30;99.90
10911;DHT22;5508;49.150;11.030;2023-04-25T02:27:13;5.30;99.90
10911;DHT22;5508;49.150;11.030;2023-04-25T02:30:14;5.30;99.90
10911;DHT22;5508;49.150;11.030;2023-04-25T02:33:14;5.30;99.90
10911;DHT22;5508;49.150;11.030;2023-04-25T02:36:17;5.20;99.90
10911;DHT22;5508;49.150;11.030;2023-04-25T02:39:17;5.30;99.90
10911;DHT22;5508;49.150;11.030;2023-04-25T02:42:19;5.30;99.90
10911;DHT22;5508;49.150;11.030;2023-04-25T02:45:19;5.30;99.90
10911;DHT22;5508;49.150;11.030;2023-04-25T02:48:20;5.30;99.90
10911;DHT22;5508;49.150;11.030;2023-04-25T02:51:20;5.30;99.90
10911;DHT22;5508;49.150;11.030;2023-04-25T02:54:21;5.30;99.90
10911;DHT22;5508;49.150;11.030;2023-04-25T02:57:22;5.30;99.90
10911;DHT22;5508;49.150;11.030;2023-04-25T03:00:22;5.30;99.90
10911;DHT22;5508;49.150;11.030;2023-04-25T03:03:23;5.30;99.90
10911;DHT22;5508;49.150;11.030;2023-04-25T03:06:23;5.30;99.90
10911;DHT22;5508;49.150;11.030;2023-04-25T03:09:24;5.40;99.90
10911;DHT22;5508;49.150;11.030;2023-04-25T03:12:25;5.30;99.90
10911;DHT22;5508;49.150;11.030;2023-04-25T03:15:25;5.50;99.90
10911;DHT22;5508;49.150;11.030;2023-04-25T03:18:26;5.50;99.90
10911;DHT22;5508;49.150;11.030;2023-04-25T03:21:27;5.50;99.90
10911;DHT22;5508;49.150;11.030;2023-04-25T03:24:28;5.50;99.90
10911;DHT22;5508;49.150;11.030;2023-04-25T03:27:28;5.50;99.90
10911;DHT22;5508;49.150;11.030;2023-04-25T03:30:29;5.50;99.90
10911;DHT22;5508;49.150;11.030;2023-04-25T03:33:29;5.40;99.90
10911;DHT22;5508;49.150;11.030;2023-04-25T03:36:30;5.40;99.90
10911;DHT22;5508;49.150;11.030;2023-04-25T03:39:31;5.40;99.90
10911;DHT22;5508;49.150;11.030;2023-04-25T03:42:31;5.40;99.90
10911;DHT22;5508;49.150;11.030;2023-04-25T03:45:32;5.40;99.90
10911;DHT22;5508;49.150;11.030;2023-04-25T03:48:33;5.40;99.90
10911;DHT22;5508;49.150;11.030;2023-04-25T03:51:33;5.40;99.90
10911;DHT22;5508;49.150;11.030;2023-04-25T03:54:34;5.40;99.90
10911;DHT22;5508;49.150;11.030;2023-04-25T03:57:35;5.40;99.90
10911;DHT22;5508;49.150;11.030;2023-04-25T04:00:36;5.40;99.90
10911;DHT22;5508;49.150;11.030;2023-04-25T04:03:36;5.30;99.90
10911;DHT22;5508;49.150;11.030;2023-04-25T04:06:37;5.30;99.90
10911;DHT22;5508;49.150;11.030;2023-04-25T04:09:38;5.30;99.90
10911;DHT22;5508;49.150;11.030;2023-04-25T04:12:38;5.40;99.90
10911;DHT22;5508;49.150;11.030;2023-04-25T04:15:39;5.40;99.90
10911;DHT22;5508;49.150;11.030;2023-04-25T04:18:40;5.40;99.90
10911;DHT22;5508;49.150;11.030;2023-04-25T04:21:40;5.50;99.90
10911;DHT22;5508;49.150;11.030;2023-04-25T04:24:41;5.50;99.90
10911;DHT22;5508;49.150;11.030;2023-04-25T04:27:44;5.50;99.90
10911;DHT22;5508;49.150;11.030;2023-04-25T04:30:45;5.70;99.90
10911;DHT22;5508;49.150;11.030;2023-04-25T04:33:46;5.70;99.90
10911;DHT22;5508;49.150;11.030;2023-04-25T04:36:47;5.70;99.90
10911;DHT22;5508;49.150;11.030;2023-04-25T04:39:48;5.70;99.90
10911;DHT22;5508;49.150;11.030;2023-04-25T04:42:48;5.70;99.90
10911;DHT22;5508;49.150;11.030;2023-04-25T04:45:49;5.80;99.90
10911;DHT22;5508;49.150;11.030;2023-04-25T04:48:50;5.90;99.90
10911;DHT22;5508;49.150;11.030;2023-04-25T04:51:52;5.90;99.90
10911;DHT22;5508;49.150;11.030;2023-04-25T04:54:53;5.90;99.90
10911;DHT22;5508;49.150;11.030;2023-04-25T04:57:54;6.00;99.90
10911;DHT22;5508;49.150;11.030;2023-04-25T05:00:55;6.10;99.90
10911;DHT22;5508;49.150;11.030;2023-04-25T05:03:56;6.20;99.90
10911;DHT22;5508;49.150;11.030;2023-04-25T05:07:00;6.30;99.90
10911;DHT22;5508;49.150;11.030;2023-04-25T05:10:01;6.50;99.90
10911;DHT22;5508;49.150;11.030;2023-04-25T05:13:01;6.60;99.90
10911;DHT22;5508;49.150;11.030;2023-04-25T05:16:03;6.70;99.80
10911;DHT22;5508;49.150;11.030;2023-04-25T05:19:03;6.70;99.90
10911;DHT22;5508;49.150;11.030;2023-04-25T05:22:04;6.60;99.90
10911;DHT22;5508;49.150;11.030;2023-04-25T05:25:05;6.60;99.90
10911;DHT22;5508;49.150;11.030;2023-04-25T05:28:07;6.60;99.90
10911;DHT22;5508;49.150;11.030;2023-04-25T05:31:09;6.50;99.90
10911;DHT22;5508;49.150;11.030;2023-04-25T05:34:10;6.50;99.90
10911;DHT22;5508;49.150;11.030;2023-04-25T05:37:11;6.60;99.90
10911;DHT22;5508;49.150;11.030;2023-04-25T05:40:12;6.80;99.90
10911;DHT22;5508;49.150;11.030;2023-04-25T05:43:13;7.00;99.00
10911;DHT22;5508;49.150;11.030;2023-04-25T05:46:13;7.10;98.90
10911;DHT22;5508;49.150;11.030;2023-04-25T05:49:14;7.10;97.30
10911;DHT22;5508;49.150;11.030;2023-04-25T05:52:15;7.20;97.80
10911;DHT22;5508;49.150;11.030;2023-04-25T05:55:15;7.30;96.60
10911;DHT22;5508;49.150;11.030;2023-04-25T05:58:16;7.30;96.20
10911;DHT22;5508;49.150;11.030;2023-04-25T06:01:17;7.30;95.60
10911;DHT22;5508;49.150;11.030;2023-04-25T06:04:17;7.60;95.70
10911;DHT22;5508;49.150;11.030;2023-04-25T06:07:18;7.90;93.70
10911;DHT22;5508;49.150;11.030;2023-04-25T06:10:20;8.00;92.10
10911;DHT22;5508;49.150;11.030;2023-04-25T06:13:21;7.90;92.40
10911;DHT22;5508;49.150;11.030;2023-04-25T06:16:21;7.90;91.30
10911;DHT22;5508;49.150;11.030;2023-04-25T06:19:22;7.80;90.60
10911;DHT22;5508;49.150;11.030;2023-04-25T06:22:22;7.90;90.50
10911;DHT22;5508;49.150;11.030;2023-04-25T06:25:23;8.10;90.70
10911;DHT22;5508;49.150;11.030;2023-04-25T06:28:24;8.40;87.70
10911;DHT22;5508;49.150;11.030;2023-04-25T06:31:24;8.40;87.30
10911;DHT22;5508;49.150;11.030;2023-04-25T06:34:25;8.50;89.50
10911;DHT22;5508;49.150;11.030;2023-04-25T06:37:26;8.70;84.80
10911;DHT22;5508;49.150;11.030;2023-04-25T06:40:27;8.80;86.40
10911;DHT22;5508;49.150;11.030;2023-04-25T06:43:27;9.00;85.40
10911;DHT22;5508;49.150;11.030;2023-04-25T06:46:28;9.00;82.00
10911;DHT22;5508;49.150;11.030;2023-04-25T06:49:28;8.90;84.90
10911;DHT22;5508;49.150;11.030;2023-04-25T06:52:29;8.80;85.00
10911;DHT22;5508;49.150;11.030;2023-04-25T06:55:30;8.70;82.30
10911;DHT22;5508;49.150;11.030;2023-04-25T06:58:30;8.50;85.40
10911;DHT22;5508;49.150;11.030;2023-04-25T07:01:31;8.50;86.10
10911;DHT22;5508;49.150;11.030;2023-04-25T07:04:32;8.30;86.30
10911;DHT22;5508;49.150;11.030;2023-04-25T07:07:32;8.10;86.00
10911;DHT22;5508;49.150;11.030;2023-04-25T07:10:33;8.00;86.90
10911;DHT22;5508;49.150;11.030;2023-04-25T07:13:33;7.90;88.00
10911;DHT22;5508;49.150;11.030;2023-04-25T07:16:34;7.80;87.50
10911;DHT22;5508;49.150;11.030;2023-04-25T07:19:35;7.90;87.70
10911;DHT22;5508;49.150;11.030;2023-04-25T07:22:37;7.90;87.40
10911;DHT22;5508;49.150;11.030;2023-04-25T07:25:37;8.00;87.20
10911;DHT22;5508;49.150;11.030;2023-04-25T07:28:38;7.90;87.70
10911;DHT22;5508;49.150;11.030;2023-04-25T07:31:39;7.90;88.60
10911;DHT22;5508;49.150;11.030;2023-04-25T07:34:39;7.80;91.00
10911;DHT22;5508;49.150;11.030;2023-04-25T07:37:40;7.50;93.30
10911;DHT22;5508;49.150;11.030;2023-04-25T07:40:40;7.20;96.60
10911;DHT22;5508;49.150;11.030;2023-04-25T07:43:41;7.10;99.50
10911;DHT22;5508;49.150;11.030;2023-04-25T07:46:42;7.00;99.90
10911;DHT22;5508;49.150;11.030;2023-04-25T07:49:42;7.20;99.90
10911;DHT22;5508;49.150;11.030;2023-04-25T07:52:43;7.20;99.40
10911;DHT22;5508;49.150;11.030;2023-04-25T07:55:43;7.30;97.50
10911;DHT22;5508;49.150;11.030;2023-04-25T07:58:44;7.30;99.10
10911;DHT22;5508;49.150;11.030;2023-04-25T08:01:45;7.40;98.90
10911;DHT22;5508;49.150;11.030;2023-04-25T08:04:45;7.40;98.20
10911;DHT22;5508;49.150;11.030;2023-04-25T08:07:46;7.30;96.10
10911;DHT22;5508;49.150;11.030;2023-04-25T08:10:47;7.20;98.00
10911;DHT22;5508;49.150;11.030;2023-04-25T08:13:48;7.10;99.40
10911;DHT22;5508;49.150;11.030;2023-04-25T08:16:49;7.10;99.40
10911;DHT22;5508;49.150;11.030;2023-04-25T08:19:49;7.10;99.90
10911;DHT22;5508;49.150;11.030;2023-04-25T08:22:50;7.10;99.90
10911;DHT22;5508;49.150;11.030;2023-04-25T08:25:51;7.00;99.10
10911;DHT22;5508;49.150;11.030;2023-04-25T08:28:51;6.70;99.10
10911;DHT22;5508;49.150;11.030;2023-04-25T08:31:52;6.60;99.40
10911;DHT22;5508;49.150;11.030;2023-04-25T08:34:55;6.40;97.80
10911;DHT22;5508;49.150;11.030;2023-04-25T08:37:56;6.20;99.40
10911;DHT22;5508;49.150;11.030;2023-04-25T08:40:56;6.30;99.90
10911;DHT22;5508;49.150;11.030;2023-04-25T08:43:58;6.40;99.90
10911;DHT22;5508;49.150;11.030;2023-04-25T08:47:03;6.50;97.90
10911;DHT22;5508;49.150;11.030;2023-04-25T08:50:05;6.70;99.20
10911;DHT22;5508;49.150;11.030;2023-04-25T08:53:09;7.10;96.60
10911;DHT22;5508;49.150;11.030;2023-04-25T08:56:12;7.60;95.40
10911;DHT22;5508;49.150;11.030;2023-04-25T08:59:17;7.90;88.40
10911;DHT22;5508;49.150;11.030;2023-04-25T09:02:17;8.20;90.30
10911;DHT22;5508;49.150;11.030;2023-04-25T09:05:21;8.40;87.20
10911;DHT22;5508;49.150;11.030;2023-04-25T09:08:23;8.50;84.30
10911;DHT22;5508;49.150;11.030;2023-04-25T09:11:23;8.50;82.90
10911;DHT22;5508;49.150;11.030;2023-04-25T09:14:24;8.80;86.70
10911;DHT22;5508;49.150;11.030;2023-04-25T09:17:26;9.30;79.10
10911;DHT22;5508;49.150;11.030;2023-04-25T09:20:26;9.70;78.20
10911;DHT22;5508;49.150;11.030;2023-04-25T09:23:27;10.00;77.70
10911;DHT22;5508;49.150;11.030;2023-04-25T09:26:28;10.00;75.40
10911;DHT22;5508;49.150;11.030;2023-04-25T09:29:33;9.90;78.90
10911;DHT22;5508;49.150;11.030;2023-04-25T09:32:34;9.60;74.80
10911;DHT22;5508;49.150;11.030;2023-04-25T09:35:40;9.70;77.20
10911;DHT22;5508;49.150;11.030;2023-04-25T09:38:43;9.90;75.10
10911;DHT22;5508;49.150;11.030;2023-04-25T09:41:44;10.20;72.20
10911;DHT22;5508;49.150;11.030;2023-04-25T09:44:46;10.30;68.70
10911;DHT22;5508;49.150;11.030;2023-04-25T09:47:47;10.00;72.00
10911;DHT22;5508;49.150;11.030;2023-04-25T09:51:07;9.90;71.10
10911;DHT22;5508;49.150;11.030;2023-04-25T09:54:08;10.00;67.80
10911;DHT22;5508;49.150;11.030;2023-04-25T09:57:23;10.20;72.20
10911;DHT22;5508;49.150;11.030;2023-04-25T10:00:24;10.70;67.80
10911;DHT22;5508;49.150;11.030;2023-04-25T10:03:26;11.10;59.30
10911;DHT22;5508;49.150;11.030;2023-04-25T10:06:27;11.30;64.00
10911;DHT22;5508;49.150;11.030;2023-04-25T10:09:29;10.50;62.70
10911;DHT22;5508;49.150;11.030;2023-04-25T10:12:34;10.90;65.80
10911;DHT22;5508;49.150;11.030;2023-04-25T10:15:35;10.90;59.40
10911;DHT22;5508;49.150;11.030;2023-04-25T10:18:39;10.60;65.70
10911;DHT22;5508;49.150;11.030;2023-04-25T10:21:46;10.30;65.30
10911;DHT22;5508;49.150;11.030;2023-04-25T10:24:49;9.80;68.70
10911;DHT22;5508;49.150;11.030;2023-04-25T10:27:52;9.60;68.60
10911;DHT22;5508;49.150;11.030;2023-04-25T10:31:03;9.40;71.50
10911;DHT22;5508;49.150;11.030;2023-04-25T10:34:04;10.10;67.40
10911;DHT22;5508;49.150;11.030;2023-04-25T10:37:08;10.70;67.50
10911;DHT22;5508;49.150;11.030;2023-04-25T10:40:10;10.90;62.30
10911;DHT22;5508;49.150;11.030;2023-04-25T10:46:30;10.70;62.00
10911;DHT22;5508;49.150;11.030;2023-04-25T10:49:42;10.80;59.80
10911;DHT22;5508;49.150;11.030;2023-04-25T10:52:43;10.90;60.60
10911;DHT22;5508;49.150;11.030;2023-04-25T10:55:51;11.60;57.20
10911;DHT22;5508;49.150;11.030;2023-04-25T10:58:52;11.10;58.60
10911;DHT22;5508;49.150;11.030;2023-04-25T11:02:11;10.80;58.40
10911;DHT22;5508;49.150;11.030;2023-04-25T11:08:56;11.00;58.30
10911;DHT22;5508;49.150;11.030;2023-04-25T11:11:58;12.10;59.70
10911;DHT22;5508;49.150;11.030;2023-04-25T11:15:00;12.40;53.00
10911;DHT22;5508;49.150;11.030;2023-04-25T11:18:01;12.20;52.30
10911;DHT22;5508;49.150;11.030;2023-04-25T11:21:03;12.70;52.90
10911;DHT22;5508;49.150;11.030;2023-04-25T11:24:04;13.30;48.20
10911;DHT22;5508;49.150;11.030;2023-04-25T11:27:05;13.50;52.90
10911;DHT22;5508;49.150;11.030;2023-04-25T11:30:15;13.30;52.20
10911;DHT22;5508;49.150;11.030;2023-04-25T11:33:16;12.80;51.80
10911;DHT22;5508;49.150;11.030;2023-04-25T11:36:17;11.90;54.30
10911;DHT22;5508;49.150;11.030;2023-04-25T11:39:19;11.70;55.30
10911;DHT22;5508;49.150;11.030;2023-04-25T11:42:19;11.90;56.80
10911;DHT22;5508;49.150;11.030;2023-04-25T11:45:20;11.70;53.80
10911;DHT22;5508;49.150;11.030;2023-04-25T11:48:23;11.80;56.50
10911;DHT22;5508;49.150;11.030;2023-04-25T11:51:23;12.10;53.50
10911;DHT22;5508;49.150;11.030;2023-04-25T11:54:24;11.80;53.10
10911;DHT22;5508;49.150;11.030;2023-04-25T11:57:24;11.30;56.30
10911;DHT22;5508;49.150;11.030;2023-04-25T12:00:25;11.30;55.70
10911;DHT22;5508;49.150;11.030;2023-04-25T12:03:29;10.90;55.50
10911;DHT22;5508;49.150;11.030;2023-04-25T12:06:31;11.20;57.20
10911;DHT22;5508;49.150;11.030;2023-04-25T12:09:33;11.50;54.60
10911;DHT22;5508;49.150;11.030;2023-04-25T12:12:34;11.10;57.00
10911;DHT22;5508;49.150;11.030;2023-04-25T12:15:35;10.80;57.50
10911;DHT22;5508;49.150;11.030;2023-04-25T12:18:36;10.80;54.90
10911;DHT22;5508;49.150;11.030;2023-04-25T12:21:37;10.70;56.60
10911;DHT22;5508;49.150;11.030;2023-04-25T12:24:37;10.90;59.40
10911;DHT22;5508;49.150;11.030;2023-04-25T12:27:38;11.60;53.90
10911;DHT22;5508;49.150;11.030;2023-04-25T12:31:04;11.60;51.70
10911;DHT22;5508;49.150;11.030;2023-04-25T12:34:06;10.90;56.00
10911;DHT22;5508;49.150;11.030;2023-04-25T12:37:07;10.50;57.10
10911;DHT22;5508;49.150;11.030;2023-04-25T12:40:08;10.40;56.40
10911;DHT22;5508;49.150;11.030;2023-04-25T12:43:09;10.40;58.40
10911;DHT22;5508;49.150;11.030;2023-04-25T12:46:09;10.50;57.10
10911;DHT22;5508;49.150;11.030;2023-04-25T12:49:10;10.90;58.80
10911;DHT22;5508;49.150;11.030;2023-04-25T12:52:11;11.30;54.00
10911;DHT22;5508;49.150;11.030;2023-04-25T12:55:11;11.30;54.70
10911;DHT22;5508;49.150;11.030;2023-04-25T12:58:13;10.90;56.00
10911;DHT22;5508;49.150;11.030;2023-04-25T13:01:14;10.60;57.00
10911;DHT22;5508;49.150;11.030;2023-04-25T13:04:15;10.20;55.80
10911;DHT22;5508;49.150;11.030;2023-04-25T13:07:16;10.20;56.20
10911;DHT22;5508;49.150;11.030;2023-04-25T13:10:17;10.30;56.60
10911;DHT22;5508;49.150;11.030;2023-04-25T13:13:18;10.20;55.00
10911;DHT22;5508;49.150;11.030;2023-04-25T13:16:18;9.90;58.10
10911;DHT22;5508;49.150;11.030;2023-04-25T13:19:21;9.90;59.40
10911;DHT22;5508;49.150;11.030;2023-04-25T13:22:21;10.20;60.50
10911;DHT22;5508;49.150;11.030;2023-04-25T13:25:22;10.60;59.40
10911;DHT22;5508;49.150;11.030;2023-04-25T13:28:23;10.90;59.70
10911;DHT22;5508;49.150;11.030;2023-04-25T13:31:23;11.10;53.60
10911;DHT22;5508;49.150;11.030;2023-04-25T13:34:25;11.10;55.10
10911;DHT22;5508;49.150;11.030;2023-04-25T13:37:25;10.90;57.90
10911;DHT22;5508;49.150;11.030;2023-04-25T13:40:26;11.10;56.00
10911;DHT22;5508;49.150;11.030;2023-04-25T13:43:27;11.00;55.40
10911;DHT22;5508;49.150;11.030;2023-04-25T13:46:27;10.50;55.80
10911;DHT22;5508;49.150;11.030;2023-04-25T13:49:28;10.20;56.90
10911;DHT22;5508;49.150;11.030;2023-04-25T13:52:29;10.00;58.60
10911;DHT22;5508;49.150;11.030;2023-04-25T13:55:30;9.80;57.50
10911;DHT22;5508;49.150;11.030;2023-04-25T13:58:30;9.70;58.80
10911;DHT22;5508;49.150;11.030;2023-04-25T14:01:32;9.60;61.00
10911;DHT22;5508;49.150;11.030;2023-04-25T14:04:35;9.40;65.10
10911;DHT22;5508;49.150;11.030;2023-04-25T14:07:36;9.30;63.80
10911;DHT22;5508;49.150;11.030;2023-04-25T14:10:37;9.30;63.70
10911;DHT22;5508;49.150;11.030;2023-04-25T14:13:38;9.40;65.00
10911;DHT22;5508;49.150;11.030;2023-04-25T14:16:38;9.40;65.00
10911;DHT22;5508;49.150;11.030;2023-04-25T14:19:39;9.70;63.40
10911;DHT22;5508;49.150;11.030;2023-04-25T14:22:43;9.80;61.30
10911;DHT22;5508;49.150;11.030;2023-04-25T14:25:44;9.80;62.30
10911;DHT22;5508;49.150;11.030;2023-04-25T14:28:44;10.00;62.30
10911;DHT22;5508;49.150;11.030;2023-04-25T14:31:45;10.20;62.10
10911;DHT22;5508;49.150;11.030;2023-04-25T14:34:46;10.50;62.80
10911;DHT22;5508;49.150;11.030;2023-04-25T14:37:46;11.10;61.80
10911;DHT22;5508;49.150;11.030;2023-04-25T14:40:47;11.20;58.30
10911;DHT22;5508;49.150;11.030;2023-04-25T14:43:47;11.20;56.30
10911;DHT22;5508;49.150;11.030;2023-04-25T14:46:48;11.20;56.80
10911;DHT22;5508;49.150;11.030;2023-04-25T14:49:51;10.80;58.90
10911;DHT22;5508;49.150;11.030;2023-04-25T14:52:54;10.70;56.90
10911;DHT22;5508;49.150;11.030;2023-04-25T14:55:58;10.50;58.10
10911;DHT22;5508;49.150;11.030;2023-04-25T14:58:59;10.50;57.90
10911;DHT22;5508;49.150;11.030;2023-04-25T15:02:00;10.40;58.90
10911;DHT22;5508;49.150;11.030;2023-04-25T15:05:01;10.40;57.20
10911;DHT22;5508;49.150;11.030;2023-04-25T15:08:02;10.20;58.90
10911;DHT22;5508;49.150;11.030;2023-04-25T15:11:03;10.30;55.50
10911;DHT22;5508;49.150;11.030;2023-04-25T15:14:04;10.50;58.70
10911;DHT22;5508;49.150;11.030;2023-04-25T15:17:04;10.70;54.60
10911;DHT22;5508;49.150;11.030;2023-04-25T15:20:08;10.40;57.70
10911;DHT22;5508;49.150;11.030;2023-04-25T15:23:13;10.40;56.30
10911;DHT22;5508;49.150;11.030;2023-04-25T15:26:13;10.30;55.70
10911;DHT22;5508;49.150;11.030;2023-04-25T15:29:14;10.40;56.70
10911;DHT22;5508;49.150;11.030;2023-04-25T15:32:15;10.10;57.50
10911;DHT22;5508;49.150;11.030;2023-04-25T15:35:16;10.10;59.50
10911;DHT22;5508;49.150;11.030;2023-04-25T15:38:17;10.30;59.30
10911;DHT22;5508;49.150;11.030;2023-04-25T15:41:17;10.50;57.70
10911;DHT22;5508;49.150;11.030;2023-04-25T15:44:18;10.40;57.80
10911;DHT22;5508;49.150;11.030;2023-04-25T15:47:18;10.80;58.00
10911;DHT22;5508;49.150;11.030;2023-04-25T15:50:20;11.00;55.70
10911;DHT22;5508;49.150;11.030;2023-04-25T15:53:20;10.80;54.30
10911;DHT22;5508;49.150;11.030;2023-04-25T15:56:21;10.70;54.90
10911;DHT22;5508;49.150;11.030;2023-04-25T15:59:21;10.50;56.10
10911;DHT22;5508;49.150;11.030;2023-04-25T16:02:22;10.40;56.10
10911;DHT22;5508;49.150;11.030;2023-04-25T16:05:23;10.30;58.50
10911;DHT22;5508;49.150;11.030;2023-04-25T16:08:23;10.00;56.70
10911;DHT22;5508;49.150;11.030;2023-04-25T16:11:25;9.90;61.10
10911;DHT22;5508;49.150;11.030;2023-04-25T16:14:26;10.10;61.40
10911;DHT22;5508;49.150;11.030;2023-04-25T16:17:26;10.50;58.90
10911;DHT22;5508;49.150;11.030;2023-04-25T16:20:30;10.90;55.00
10911;DHT22;5508;49.150;11.030;2023-04-25T16:23:30;10.50;57.30
10911;DHT22;5508;49.150;11.030;2023-04-25T16:26:31;10.20;59.50
10911;DHT22;5508;49.150;11.030;2023-04-25T16:29:32;10.00;57.30
10911;DHT22;5508;49.150;11.030;2023-04-25T16:32:33;9.40;62.00
10911;DHT22;5508;49.150;11.030;2023-04-25T16:35:33;9.20;61.60
10911;DHT22;5508;49.150;11.030;2023-04-25T16:38:34;9.20;63.30
10911;DHT22;5508;49.150;11.030;2023-04-25T16:41:36;9.30;62.70
10911;DHT22;5508;49.150;11.030;2023-04-25T16:44:36;9.30;64.20
10911;DHT22;5508;49.150;11.030;2023-04-25T16:47:37;9.40;64.80
10911;DHT22;5508;49.150;11.030;2023-04-25T16:50:37;9.40;61.70
10911;DHT22;5508;49.150;11.030;2023-04-25T16:53:38;9.20;62.80
10911;DHT22;5508;49.150;11.030;2023-04-25T16:56:39;9.10;65.10
10911;DHT22;5508;49.150;11.030;2023-04-25T16:59:40;9.00;62.10
10911;DHT22;5508;49.150;11.030;2023-04-25T17:02:42;8.90;64.20
10911;DHT22;5508;49.150;11.030;2023-04-25T17:05:42;8.70;67.40
10911;DHT22;5508;49.150;11.030;2023-04-25T17:08:43;8.70;66.90
10911;DHT22;5508;49.150;11.030;2023-04-25T17:11:44;8.70;66.20
10911;DHT22;5508;49.150;11.030;2023-04-25T17:14:45;8.70;66.50
10911;DHT22;5508;49.150;11.030;2023-04-25T17:17:46;8.70;64.70
10911;DHT22;5508;49.150;11.030;2023-04-25T17:20:47;8.70;64.40
10911;DHT22;5508;49.150;11.030;2023-04-25T17:23:47;8.70;67.90
10911;DHT22;5508;49.150;11.030;2023-04-25T17:26:48;8.80;65.60
10911;DHT22;5508;49.150;11.030;2023-04-25T17:29:48;8.70;65.80
10911;DHT22;5508;49.150;11.030;2023-04-25T17:32:49;8.60;66.40
10911;DHT22;5508;49.150;11.030;2023-04-25T17:35:49;8.50;67.20
10911;DHT22;5508;49.150;11.030;2023-04-25T17:38:50;8.30;68.00
10911;DHT22;5508;49.150;11.030;2023-04-25T17:41:51;8.20;70.20
10911;DHT22;5508;49.150;11.030;2023-04-25T17:44:51;8.10;70.10
10911;DHT22;5508;49.150;11.030;2023-04-25T17:47:54;8.20;69.70
10911;DHT22;5508;49.150;11.030;2023-04-25T17:50:54;8.20;67.90
10911;DHT22;5508;49.150;11.030;2023-04-25T17:53:56;8.10;69.30
10911;DHT22;5508;49.150;11.030;2023-04-25T17:56:56;8.00;70.40
10911;DHT22;5508;49.150;11.030;2023-04-25T17:59:57;8.00;70.00
10911;DHT22;5508;49.150;11.030;2023-04-25T18:02:57;7.90;70.70
10911;DHT22;5508;49.150;11.030;2023-04-25T18:05:58;7.70;70.90
10911;DHT22;5508;49.150;11.030;2023-04-25T18:08:59;7.60;73.00
10911;DHT22;5508;49.150;11.030;2023-04-25T18:12:01;7.50;70.70
10911;DHT22;5508;49.150;11.030;2023-04-25T18:15:03;7.30;72.70
10911;DHT22;5508;49.150;11.030;2023-04-25T18:18:07;7.10;72.80
10911;DHT22;5508;49.150;11.030;2023-04-25T18:21:14;7.00;74.20
10911;DHT22;5508;49.150;11.030;2023-04-25T18:24:16;6.90;75.60
10911;DHT22;5508;49.150;11.030;2023-04-25T18:27:17;6.80;77.50
10911;DHT22;5508;49.150;11.030;2023-04-25T18:30:18;6.60;78.50
10911;DHT22;5508;49.150;11.030;2023-04-25T18:33:19;6.50;80.50
10911;DHT22;5508;49.150;11.030;2023-04-25T18:36:21;6.30;81.20
10911;DHT22;5508;49.150;11.030;2023-04-25T18:39:21;6.20;82.00
10911;DHT22;5508;49.150;11.030;2023-04-25T18:42:23;6.00;82.50
10911;DHT22;5508;49.150;11.030;2023-04-25T18:45:24;5.80;82.40
10911;DHT22;5508;49.150;11.030;2023-04-25T18:48:24;5.70;83.60
10911;DHT22;5508;49.150;11.030;2023-04-25T18:51:29;5.60;85.10
10911;DHT22;5508;49.150;11.030;2023-04-25T18:54:30;5.50;86.40
10911;DHT22;5508;49.150;11.030;2023-04-25T18:57:31;5.40;87.30
10911;DHT22;5508;49.150;11.030;2023-04-25T19:00:32;5.40;88.00
10911;DHT22;5508;49.150;11.030;2023-04-25T19:03:33;5.40;89.30
10911;DHT22;5508;49.150;11.030;2023-04-25T19:06:34;5.50;89.20
10911;DHT22;5508;49.150;11.030;2023-04-25T19:09:35;5.50;89.10
10911;DHT22;5508;49.150;11.030;2023-04-25T19:12:36;5.60;89.70
10911;DHT22;5508;49.150;11.030;2023-04-25T19:15:37;5.60;89.60
10911;DHT22;5508;49.150;11.030;2023-04-25T19:18:38;5.70;89.90
10911;DHT22;5508;49.150;11.030;2023-04-25T19:21:39;5.70;89.20
10911;DHT22;5508;49.150;11.030;2023-04-25T19:24:40;5.80;91.20
10911;DHT22;5508;49.150;11.030;2023-04-25T19:27:41;5.80;91.90